createdAt,value
2023-05-06T00:04:54.904Z,10.80
2023-05-06T00:10:48.261Z,10.80
2023-05-06T00:16:41.641Z,10.90
2023-05-06T00:22:36.477Z,10.90
2023-05-06T00:28:29.663Z,10.90
2023-05-06T00:34:22.893Z,10.90
2023-05-06T00:40:18.041Z,10.90
2023-05-06T00:46:12.278Z,11.00
2023-05-06T00:52:06.279Z,11.00
2023-05-06T00:58:00.946Z,11.00
2023-05-06T01:03:57.669Z,11.00
2023-05-06T01:09:58.068Z,11.00
2023-05-06T01:15:55.697Z,10.90
2023-05-06T01:21:52.716Z,10.90
2023-05-06T01:27:47.288Z,10.80
2023-05-06T01:33:47.431Z,10.80
2023-05-06T01:39:42.816Z,10.80
2023-05-06T01:45:38.739Z,10.80
2023-05-06T01:51:34.179Z,10.80
2023-05-06T01:57:28.899Z,10.80
2023-05-06T02:03:23.512Z,10.80
2023-05-06T02:09:17.009Z,10.70
2023-05-06T02:15:17.250Z,10.70
2023-05-06T02:21:12.311Z,10.70
2023-05-06T02:27:06.031Z,10.60
2023-05-06T02:32:59.244Z,10.70
2023-05-06T02:38:54.602Z,10.80
2023-05-06T02:44:48.373Z,10.80
2023-05-06T02:50:41.953Z,10.80
2023-05-06T02:56:36.540Z,10.80
2023-05-06T03:02:29.551Z,10.80
2023-05-06T03:08:22.699Z,10.80
2023-05-06T03:14:18.545Z,10.80
2023-05-06T03:20:12.151Z,10.70
2023-05-06T03:26:09.168Z,10.70
2023-05-06T03:32:05.677Z,10.60
2023-05-06T03:38:05.151Z,10.60
2023-05-06T03:44:06.675Z,10.70
2023-05-06T03:50:01.689Z,10.60
2023-05-06T03:55:56.155Z,10.60
2023-05-06T04:01:49.434Z,10.70
2023-05-06T04:07:44.689Z,10.70
2023-05-06T04:13:37.929Z,10.80
2023-05-06T04:19:36.757Z,10.80
2023-05-06T04:25:31.684Z,10.70
2023-05-06T04:31:25.967Z,10.60
2023-05-06T04:37:20.057Z,10.70
2023-05-06T04:43:28.588Z,10.60
2023-05-06T04:49:30.079Z,10.50
2023-05-06T04:55:23.968Z,10.50
2023-05-06T05:01:21.273Z,10.60
2023-05-06T05:07:14.448Z,10.60
2023-05-06T05:13:07.904Z,10.60
2023-05-06T05:19:03.956Z,10.50
2023-05-06T05:24:59.393Z,10.50
2023-05-06T05:30:53.712Z,10.50
2023-05-06T05:36:49.113Z,10.50
2023-05-06T05:42:42.759Z,10.60
2023-05-06T05:48:45.196Z,10.50
2023-05-06T05:54:40.084Z,10.50
2023-05-06T06:00:33.873Z,10.50
2023-05-06T06:06:34.122Z,10.50
2023-05-06T06:12:28.613Z,10.40
2023-05-06T06:18:21.716Z,10.40
2023-05-06T06:24:15.359Z,10.50
2023-05-06T06:30:10.960Z,10.50
2023-05-06T06:36:04.157Z,10.60
2023-05-06T06:41:58.381Z,10.60
2023-05-06T06:47:52.782Z,10.60
2023-05-06T06:53:48.262Z,10.70
2023-05-06T06:59:41.318Z,10.70
2023-05-06T07:05:36.207Z,10.60
2023-05-06T07:11:29.200Z,10.60
2023-05-06T07:17:22.631Z,10.70
2023-05-06T07:23:17.508Z,10.70
2023-05-06T07:29:10.535Z,10.70
2023-05-06T07:35:03.953Z,10.70
2023-05-06T07:40:58.770Z,10.70
2023-05-06T07:46:52.863Z,10.80
2023-05-06T07:52:45.980Z,10.80
2023-05-06T07:58:40.496Z,10.80
2023-05-06T08:12:19.525Z,10.70
2023-05-06T08:18:22.353Z,10.80
2023-05-06T08:24:16.333Z,10.90
2023-05-06T08:30:10.770Z,10.70
2023-05-06T08:36:05.716Z,10.80
2023-05-06T08:42:00.711Z,10.80
2023-05-06T08:47:54.011Z,10.80
2023-05-06T08:53:50.381Z,10.90
2023-05-06T08:59:44.977Z,10.90
2023-05-06T09:05:38.308Z,10.90
2023-05-06T09:11:32.991Z,10.90
2023-05-06T09:17:28.046Z,11.00
2023-05-06T09:23:24.086Z,10.90
2023-05-06T09:29:19.026Z,11.00
2023-05-06T09:35:12.920Z,10.90
2023-05-06T09:41:07.451Z,11.00
2023-05-06T09:47:02.683Z,11.10
2023-05-06T09:52:56.976Z,11.20
2023-05-06T09:58:53.351Z,11.20
2023-05-06T10:04:50.369Z,11.20
2023-05-06T10:10:44.389Z,11.20
2023-05-06T10:16:40.391Z,11.10
2023-05-06T10:22:48.001Z,11.10
2023-05-06T10:28:43.877Z,11.20
2023-05-06T10:34:43.860Z,11.20
2023-05-06T10:40:38.997Z,11.20
2023-05-06T10:46:32.730Z,11.20
2023-05-06T10:52:26.765Z,11.10
2023-05-06T10:58:21.613Z,11.00
2023-05-06T11:04:16.373Z,11.00
2023-05-06T11:10:12.203Z,11.10
2023-05-06T11:16:07.118Z,11.20
2023-05-06T11:22:02.001Z,11.20
2023-05-06T11:27:57.336Z,11.10
2023-05-06T11:33:53.105Z,11.10
2023-05-06T11:39:50.006Z,11.20
2023-05-06T11:45:45.467Z,11.10
2023-05-06T11:51:40.337Z,11.10
2023-05-06T11:57:35.212Z,11.10
2023-05-06T12:03:30.063Z,11.20
2023-05-06T12:09:25.404Z,11.20
2023-05-06T12:15:19.133Z,11.00
2023-05-06T12:21:12.119Z,11.20
2023-05-06T12:27:06.573Z,11.10
2023-05-06T12:33:00.131Z,11.10
2023-05-06T12:38:54.020Z,11.20
2023-05-06T12:44:48.758Z,11.10
2023-05-06T12:50:43.774Z,11.30
2023-05-06T12:56:37.089Z,11.30
2023-05-06T13:02:31.745Z,11.50
2023-05-06T13:08:25.057Z,11.50
2023-05-06T13:14:18.307Z,11.40
2023-05-06T13:20:14.176Z,11.40
2023-05-06T13:26:07.446Z,11.40
2023-05-06T13:32:01.022Z,11.40
2023-05-06T13:37:55.625Z,11.30
2023-05-06T13:43:48.978Z,11.30
2023-05-06T13:49:42.315Z,11.30
2023-05-06T13:55:36.865Z,11.30
2023-05-06T14:01:30.078Z,11.30
2023-05-06T14:07:23.109Z,11.30
2023-05-06T14:13:17.794Z,11.20
2023-05-06T14:19:11.011Z,11.40
2023-05-06T14:25:04.093Z,11.30
2023-05-06T14:30:59.440Z,11.30
2023-05-06T14:36:52.488Z,11.30
2023-05-06T14:42:46.020Z,11.30
2023-05-06T14:48:40.432Z,11.30
2023-05-06T14:54:33.513Z,11.30
2023-05-06T15:00:26.878Z,11.30
2023-05-06T15:06:21.505Z,11.30
2023-05-06T15:12:14.618Z,11.30
2023-05-06T15:18:07.764Z,11.30
2023-05-06T15:24:02.982Z,11.30
2023-05-06T15:29:56.037Z,11.30
2023-05-06T15:35:49.357Z,11.20
2023-05-06T15:41:43.806Z,11.30
2023-05-06T15:47:37.208Z,11.20
2023-05-06T15:53:30.466Z,11.20
2023-05-06T15:59:24.887Z,11.10
2023-05-06T16:05:18.240Z,11.10
2023-05-06T16:11:11.281Z,11.10
2023-05-06T16:17:05.866Z,11.10
2023-05-06T16:22:59.066Z,11.20
2023-05-06T16:28:53.850Z,11.20
2023-05-06T16:34:48.466Z,11.20
2023-05-06T16:40:42.844Z,11.20
2023-05-06T16:46:35.976Z,11.20
2023-05-06T16:52:30.968Z,11.20
2023-05-06T16:58:24.257Z,11.10
2023-05-06T17:04:17.525Z,11.10
2023-05-06T17:10:12.835Z,11.10
2023-05-06T17:16:06.637Z,11.10
2023-05-06T17:21:59.608Z,11.00
2023-05-06T17:27:54.249Z,11.00
2023-05-06T17:33:47.578Z,10.90
2023-05-06T17:39:40.683Z,10.90
2023-05-06T17:45:35.239Z,10.90
2023-05-06T17:51:28.409Z,10.80
2023-05-06T17:57:22.164Z,10.80
2023-05-06T18:03:16.702Z,10.90
2023-05-06T18:09:10.464Z,10.80
2023-05-06T18:15:03.537Z,10.80
2023-05-06T18:20:57.871Z,10.80
2023-05-06T18:26:51.760Z,10.60
2023-05-06T18:32:45.048Z,10.60
2023-05-06T18:38:39.617Z,10.70
2023-05-06T18:44:32.648Z,10.70
2023-05-06T18:50:25.718Z,10.70
2023-05-06T18:56:21.570Z,10.80
2023-05-06T19:02:14.564Z,10.80
2023-05-06T19:08:09.490Z,10.80
2023-05-06T19:14:04.187Z,10.70
2023-05-06T19:19:57.475Z,10.70
2023-05-06T19:25:50.864Z,10.70
2023-05-06T19:31:45.456Z,10.60
2023-05-06T19:37:38.637Z,10.60
2023-05-06T19:43:31.807Z,10.50
2023-05-06T19:49:26.474Z,10.50
2023-05-06T19:55:20.725Z,10.50
2023-05-06T20:01:13.779Z,10.60
2023-05-06T20:07:08.395Z,10.60
2023-05-06T20:13:02.459Z,10.60
2023-05-06T20:18:55.855Z,10.50
2023-05-06T20:24:53.056Z,10.60
2023-05-06T20:30:46.325Z,10.50
2023-05-06T20:36:40.038Z,10.60
2023-05-06T20:42:34.729Z,10.50
2023-05-06T20:48:28.239Z,10.60
2023-05-06T20:54:21.253Z,10.50
2023-05-06T21:00:16.214Z,10.60
2023-05-06T21:06:09.700Z,10.50
2023-05-06T21:12:03.277Z,10.50
2023-05-06T21:17:57.949Z,10.50
2023-05-06T21:23:51.680Z,10.50
2023-05-06T21:29:44.764Z,10.50
2023-05-06T21:35:39.379Z,10.50
2023-05-06T21:41:35.542Z,10.50
2023-05-06T21:47:28.878Z,10.50
2023-05-06T21:53:23.272Z,10.40
2023-05-06T21:59:16.605Z,10.40
2023-05-06T22:05:10.095Z,10.40
2023-05-06T22:11:04.864Z,10.30
2023-05-06T22:16:58.074Z,10.30
2023-05-06T22:22:52.547Z,10.20
2023-05-06T22:28:46.922Z,10.20
2023-05-06T22:34:40.515Z,10.20
2023-05-06T22:40:35.307Z,10.20
2023-05-06T22:46:30.423Z,10.20
2023-05-06T22:52:25.278Z,10.20
2023-05-06T22:58:18.540Z,10.10
2023-05-06T23:04:13.062Z,10.10
2023-05-06T23:10:06.985Z,10.00
2023-05-06T23:16:00.214Z,10.10
2023-05-06T23:21:54.587Z,10.10
2023-05-06T23:27:47.796Z,10.10
2023-05-06T23:33:41.101Z,9.90
2023-05-06T23:39:35.765Z,9.90
2023-05-06T23:45:28.975Z,9.90
2023-05-06T23:51:22.182Z,9.90
2023-05-06T23:57:16.728Z,9.90
